createdAt,value
2023-06-17T00:01:29.343Z,21.10
2023-06-17T00:03:57.448Z,21.10
2023-06-17T00:06:25.348Z,21.00
2023-06-17T00:08:55.642Z,20.90
2023-06-17T00:11:23.725Z,20.90
2023-06-17T00:13:53.298Z,20.80
2023-06-17T00:16:22.158Z,20.80
2023-06-17T00:18:52.635Z,20.80
2023-06-17T00:21:20.545Z,20.80
2023-06-17T00:23:48.508Z,20.70
2023-06-17T00:26:16.459Z,20.70
2023-06-17T00:28:44.354Z,20.60
2023-06-17T00:31:13.668Z,20.60
2023-06-17T00:33:41.627Z,20.60
2023-06-17T00:36:09.748Z,20.50
2023-06-17T00:38:37.658Z,20.50
2023-06-17T00:41:05.541Z,20.40
2023-06-17T00:43:33.468Z,20.40
2023-06-17T00:46:01.537Z,20.40
2023-06-17T00:48:31.084Z,20.30
2023-06-17T00:51:02.984Z,20.30
2023-06-17T00:53:31.716Z,20.30
2023-06-17T00:56:00.171Z,20.20
2023-06-17T00:58:28.326Z,20.20
2023-06-17T01:00:56.728Z,20.20
2023-06-17T01:03:25.745Z,20.10
2023-06-17T01:06:00.330Z,20.10
2023-06-17T01:08:39.277Z,20.00
2023-06-17T01:11:10.630Z,20.00
2023-06-17T01:13:39.755Z,20.00
2023-06-17T01:16:07.873Z,20.00
2023-06-17T01:18:37.612Z,19.90
2023-06-17T01:21:07.162Z,20.00
2023-06-17T01:23:36.521Z,20.00
2023-06-17T01:26:06.348Z,19.90
2023-06-17T01:28:37.409Z,19.90
2023-06-17T01:31:05.972Z,19.90
2023-06-17T01:33:34.100Z,19.90
2023-06-17T01:36:05.462Z,19.80
2023-06-17T01:38:39.880Z,19.70
2023-06-17T01:41:11.851Z,19.50
2023-06-17T01:43:42.251Z,19.30
2023-06-17T01:46:12.499Z,19.20
2023-06-17T01:48:40.815Z,19.10
2023-06-17T01:51:09.138Z,19.10
2023-06-17T01:53:37.070Z,19.10
2023-06-17T01:58:33.664Z,19.10
2023-06-17T02:01:01.683Z,19.10
2023-06-17T02:03:29.985Z,19.00
2023-06-17T02:05:59.206Z,19.00
2023-06-17T02:08:27.993Z,19.00
2023-06-17T02:10:56.091Z,18.90
2023-06-17T02:13:24.092Z,18.80
2023-06-17T02:15:54.117Z,18.80
2023-06-17T02:18:23.212Z,18.80
2023-06-17T02:20:51.230Z,18.70
2023-06-17T02:23:19.214Z,18.70
2023-06-17T02:25:47.176Z,18.70
2023-06-17T02:28:15.138Z,18.70
2023-06-17T02:30:43.155Z,18.70
2023-06-17T02:33:13.979Z,18.70
2023-06-17T02:35:42.983Z,18.70
2023-06-17T02:38:10.965Z,18.70
2023-06-17T02:40:38.922Z,18.60
2023-06-17T02:43:06.892Z,18.60
2023-06-17T02:45:34.762Z,18.50
2023-06-17T02:48:03.541Z,18.50
2023-06-17T02:50:32.910Z,18.50
2023-06-17T02:53:01.606Z,18.50
2023-06-17T02:55:29.663Z,18.50
2023-06-17T02:57:57.641Z,18.40
2023-06-17T03:00:25.892Z,18.40
2023-06-17T03:02:54.095Z,18.30
2023-06-17T03:05:23.481Z,18.30
2023-06-17T03:07:52.953Z,18.30
2023-06-17T03:10:21.633Z,18.20
2023-06-17T03:12:49.856Z,18.20
2023-06-17T03:15:19.192Z,18.20
2023-06-17T03:17:47.444Z,18.10
2023-06-17T03:20:15.544Z,18.10
2023-06-17T03:22:46.912Z,18.10
2023-06-17T03:25:16.162Z,18.10
2023-06-17T03:27:44.007Z,18.10
2023-06-17T03:30:13.159Z,18.00
2023-06-17T03:32:41.059Z,18.00
2023-06-17T03:35:09.610Z,18.00
2023-06-17T03:37:37.523Z,17.90
2023-06-17T03:40:06.304Z,17.90
2023-06-17T03:42:35.572Z,17.90
2023-06-17T03:45:04.865Z,17.90
2023-06-17T03:47:32.800Z,17.90
2023-06-17T03:50:00.802Z,17.90
2023-06-17T03:52:28.803Z,17.80
2023-06-17T03:54:57.175Z,17.70
2023-06-17T03:57:25.069Z,17.60
2023-06-17T03:59:54.303Z,17.60
2023-06-17T04:02:22.248Z,17.50
2023-06-17T04:04:53.627Z,17.50
2023-06-17T04:07:21.833Z,17.50
2023-06-17T04:10:05.383Z,17.50
2023-06-17T04:12:34.857Z,17.50
2023-06-17T04:15:04.664Z,17.40
2023-06-17T04:17:32.571Z,17.40
2023-06-17T04:20:13.237Z,17.30
2023-06-17T04:22:42.171Z,17.40
2023-06-17T04:25:11.885Z,17.40
2023-06-17T04:27:40.653Z,17.40
2023-06-17T04:30:11.327Z,17.30
2023-06-17T04:32:40.848Z,17.30
2023-06-17T04:35:10.225Z,17.20
2023-06-17T04:37:38.159Z,17.10
2023-06-17T04:40:08.651Z,17.10
2023-06-17T04:42:38.556Z,17.10
2023-06-17T04:45:07.436Z,17.10
2023-06-17T04:47:36.722Z,17.10
2023-06-17T04:50:07.286Z,17.10
2023-06-17T04:52:35.167Z,17.20
2023-06-17T04:55:03.343Z,17.20
2023-06-17T04:57:31.328Z,17.20
2023-06-17T04:59:59.190Z,17.20
2023-06-17T05:02:27.143Z,17.20
2023-06-17T05:04:56.526Z,17.20
2023-06-17T05:07:24.617Z,17.20
2023-06-17T05:09:52.546Z,17.30
2023-06-17T05:12:20.407Z,17.40
2023-06-17T05:14:48.373Z,17.50
2023-06-17T05:17:16.428Z,17.60
2023-06-17T05:19:46.958Z,17.70
2023-06-17T05:22:16.221Z,17.80
2023-06-17T05:24:44.229Z,17.90
2023-06-17T05:27:12.347Z,17.90
2023-06-17T05:29:40.607Z,17.90
2023-06-17T05:32:08.713Z,17.90
2023-06-17T05:34:36.749Z,17.90
2023-06-17T05:37:05.117Z,18.00
2023-06-17T05:39:34.364Z,18.10
2023-06-17T05:42:02.296Z,18.30
2023-06-17T05:44:30.374Z,18.40
2023-06-17T05:46:58.336Z,18.50
2023-06-17T05:49:26.183Z,18.60
2023-06-17T05:51:54.083Z,18.60
2023-06-17T05:54:21.977Z,18.60
2023-06-17T05:56:51.951Z,18.70
2023-06-17T05:59:19.881Z,18.70
2023-06-17T06:01:47.861Z,18.80
2023-06-17T06:04:15.921Z,18.90
2023-06-17T06:06:43.923Z,19.00
2023-06-17T06:09:12.076Z,19.10
2023-06-17T06:11:40.094Z,19.10
2023-06-17T06:14:09.479Z,19.20
2023-06-17T06:16:37.522Z,19.20
2023-06-17T06:19:06.653Z,19.40
2023-06-17T06:21:35.776Z,19.50
2023-06-17T06:24:03.724Z,19.60
2023-06-17T06:26:31.666Z,19.70
2023-06-17T06:28:59.604Z,19.80
2023-06-17T06:31:28.904Z,19.90
2023-06-17T06:33:56.931Z,20.00
2023-06-17T06:36:24.863Z,20.00
2023-06-17T06:38:52.772Z,20.10
2023-06-17T06:41:20.921Z,20.20
2023-06-17T06:43:48.972Z,20.30
2023-06-17T06:46:17.111Z,20.30
2023-06-17T06:48:46.772Z,20.30
2023-06-17T06:51:14.679Z,20.40
2023-06-17T06:53:42.621Z,20.50
2023-06-17T06:56:10.548Z,20.60
2023-06-17T06:58:38.485Z,20.70
2023-06-17T07:01:06.450Z,20.70
2023-06-17T07:03:34.488Z,20.80
2023-06-17T07:06:04.693Z,20.80
2023-06-17T07:08:32.656Z,20.90
2023-06-17T07:11:00.584Z,20.90
2023-06-17T07:13:28.928Z,20.90
2023-06-17T07:15:56.797Z,21.00
2023-06-17T07:18:25.310Z,21.20
2023-06-17T07:20:53.242Z,21.20
2023-06-17T07:23:22.564Z,21.40
2023-06-17T07:25:52.928Z,21.50
2023-06-17T07:28:23.120Z,21.60
2023-06-17T07:30:51.747Z,21.60
2023-06-17T07:33:19.759Z,21.60
2023-06-17T07:35:47.766Z,21.80
2023-06-17T07:38:15.714Z,21.90
2023-06-17T07:40:47.815Z,22.00
2023-06-17T07:43:15.824Z,22.00
2023-06-17T07:45:43.768Z,22.10
2023-06-17T07:48:11.696Z,22.20
2023-06-17T07:50:39.613Z,22.30
2023-06-17T07:53:07.492Z,22.40
2023-06-17T07:55:35.367Z,22.50
2023-06-17T07:58:04.632Z,22.60
2023-06-17T08:00:32.681Z,22.70
2023-06-17T08:03:00.974Z,22.80
2023-06-17T08:05:28.960Z,22.90
2023-06-17T08:07:57.100Z,22.90
2023-06-17T08:10:25.081Z,23.00
2023-06-17T08:12:53.081Z,23.20
2023-06-17T08:15:23.331Z,23.20
2023-06-17T08:17:51.906Z,23.40
2023-06-17T08:20:20.141Z,23.50
2023-06-17T08:22:48.243Z,23.60
2023-06-17T08:25:16.189Z,23.60
2023-06-17T08:27:48.678Z,23.70
2023-06-17T08:30:16.843Z,23.90
2023-06-17T08:32:46.227Z,23.90
2023-06-17T08:35:15.330Z,24.00
2023-06-17T08:37:43.440Z,24.00
2023-06-17T08:40:12.113Z,24.20
2023-06-17T08:42:40.979Z,24.30
2023-06-17T08:45:10.083Z,24.50
2023-06-17T08:47:38.376Z,24.70
2023-06-17T08:50:08.920Z,24.90
2023-06-17T08:52:40.267Z,25.10
2023-06-17T08:55:09.292Z,25.30
2023-06-17T08:57:37.565Z,25.50
2023-06-17T09:00:07.313Z,25.80
2023-06-17T09:02:37.731Z,26.20
2023-06-17T09:05:13.728Z,26.80
2023-06-17T09:07:43.462Z,27.30
2023-06-17T09:10:11.649Z,27.80
2023-06-17T09:12:40.035Z,28.50
2023-06-17T09:15:09.321Z,29.40
2023-06-17T09:17:39.910Z,30.50
2023-06-17T09:20:13.905Z,31.40
2023-06-17T09:22:42.826Z,32.40
2023-06-17T09:25:13.893Z,33.20
2023-06-17T09:28:03.094Z,33.80
2023-06-17T09:30:43.058Z,34.40
2023-06-17T09:33:19.536Z,34.90
2023-06-17T09:35:49.031Z,35.40
2023-06-17T09:38:18.275Z,35.50
2023-06-17T09:40:49.331Z,36.00
2023-06-17T09:43:27.662Z,36.60
2023-06-17T09:46:00.387Z,37.50
2023-06-17T09:48:32.853Z,38.90
2023-06-17T09:51:06.773Z,39.90
2023-06-17T09:53:38.512Z,40.50
2023-06-17T09:56:12.092Z,40.70
2023-06-17T09:58:43.725Z,40.90
2023-06-17T10:01:13.337Z,41.00
2023-06-17T10:03:41.793Z,41.10
2023-06-17T10:06:12.264Z,41.00
2023-06-17T10:08:43.009Z,40.40
2023-06-17T10:11:13.841Z,39.90
2023-06-17T10:13:43.856Z,39.70
2023-06-17T10:16:14.640Z,39.70
2023-06-17T10:18:45.509Z,39.70
2023-06-17T10:21:15.871Z,39.70
2023-06-17T10:23:45.187Z,39.80
2023-06-17T10:26:14.252Z,39.90
2023-06-17T10:28:46.810Z,39.90
2023-06-17T10:31:28.573Z,40.00
2023-06-17T10:33:58.657Z,39.80
2023-06-17T10:36:29.280Z,39.90
2023-06-17T10:38:58.325Z,39.70
2023-06-17T10:42:00.376Z,39.50
2023-06-17T10:44:44.261Z,39.50
2023-06-17T10:47:22.335Z,39.50
2023-06-17T10:49:51.064Z,39.40
2023-06-17T10:52:21.666Z,39.20
2023-06-17T10:54:52.939Z,38.90
2023-06-17T10:57:34.468Z,38.50
2023-06-17T11:00:08.029Z,38.10
2023-06-17T11:02:37.184Z,37.90
2023-06-17T11:05:06.230Z,37.60
2023-06-17T11:07:35.881Z,37.30
2023-06-17T11:10:04.479Z,36.90
2023-06-17T11:12:35.261Z,36.70
2023-06-17T11:15:04.614Z,36.50
2023-06-17T11:17:32.827Z,36.00
2023-06-17T11:20:00.909Z,35.50
2023-06-17T11:22:28.887Z,35.10
2023-06-17T11:24:59.311Z,34.70
2023-06-17T11:27:27.357Z,34.60
2023-06-17T11:29:55.485Z,34.40
2023-06-17T11:32:23.617Z,34.20
2023-06-17T11:34:53.061Z,33.80
2023-06-17T11:37:21.306Z,33.50
2023-06-17T11:39:49.383Z,33.20
2023-06-17T11:42:19.017Z,32.90
2023-06-17T11:44:47.349Z,32.60
2023-06-17T11:47:15.794Z,32.30
2023-06-17T11:49:43.924Z,32.10
2023-06-17T11:52:12.847Z,31.90
2023-06-17T11:54:49.613Z,31.70
2023-06-17T11:57:22.649Z,31.60
2023-06-17T11:59:52.028Z,31.30
2023-06-17T12:02:20.865Z,31.10
2023-06-17T12:04:49.362Z,30.90
2023-06-17T12:07:17.526Z,30.80
2023-06-17T12:09:52.968Z,30.60
2023-06-17T12:12:29.784Z,30.40
2023-06-17T12:15:10.923Z,30.30
2023-06-17T12:17:45.315Z,30.30
2023-06-17T12:20:15.704Z,30.30
2023-06-17T12:22:44.370Z,30.40
2023-06-17T12:25:13.279Z,30.30
2023-06-17T12:27:43.782Z,30.40
2023-06-17T12:30:14.971Z,30.40
2023-06-17T12:32:43.951Z,30.50
2023-06-17T12:35:12.897Z,30.60
2023-06-17T12:37:43.310Z,30.60
2023-06-17T12:40:12.500Z,30.60
2023-06-17T12:42:41.944Z,30.60
2023-06-17T12:45:10.829Z,30.70
2023-06-17T12:47:38.854Z,30.80
2023-06-17T12:50:08.041Z,30.80
2023-06-17T12:52:36.849Z,30.80
2023-06-17T12:55:05.918Z,30.80
2023-06-17T12:57:34.023Z,30.80
2023-06-17T13:00:05.373Z,30.80
2023-06-17T13:02:36.720Z,30.70
2023-06-17T13:05:06.287Z,30.70
2023-06-17T13:07:34.342Z,30.70
2023-06-17T13:10:02.253Z,30.80
2023-06-17T13:12:30.215Z,30.80
2023-06-17T13:14:58.179Z,30.90
2023-06-17T13:17:27.533Z,31.00
2023-06-17T13:19:55.529Z,31.00
2023-06-17T13:22:23.502Z,31.10
2023-06-17T13:24:52.196Z,31.10
2023-06-17T13:27:20.321Z,31.20
2023-06-17T13:29:48.412Z,31.20
2023-06-17T13:32:19.331Z,31.20
2023-06-17T13:34:49.083Z,31.30
2023-06-17T13:37:17.145Z,31.40
2023-06-17T13:39:45.939Z,31.40
2023-06-17T13:42:14.339Z,31.60
2023-06-17T13:44:45.284Z,31.70
2023-06-17T13:47:13.419Z,31.80
2023-06-17T13:49:41.301Z,31.80
2023-06-17T13:52:11.909Z,31.90
2023-06-17T13:54:39.821Z,31.90
2023-06-17T13:57:08.950Z,32.00
2023-06-17T13:59:37.578Z,32.10
2023-06-17T14:02:05.794Z,32.10
2023-06-17T14:04:33.782Z,32.10
2023-06-17T14:07:01.797Z,32.10
2023-06-17T14:09:31.215Z,32.20
2023-06-17T14:11:59.121Z,32.30
2023-06-17T14:14:27.056Z,32.40
2023-06-17T14:16:57.536Z,32.40
2023-06-17T14:19:25.525Z,32.40
2023-06-17T14:21:58.166Z,32.40
2023-06-17T14:24:26.396Z,32.40
2023-06-17T14:27:27.298Z,32.40
2023-06-17T14:29:55.573Z,32.40
2023-06-17T14:32:23.517Z,32.40
2023-06-17T14:34:54.540Z,32.40
2023-06-17T14:37:22.609Z,32.40
2023-06-17T14:39:50.668Z,32.30
2023-06-17T14:42:19.940Z,32.30
2023-06-17T14:44:48.516Z,32.30
2023-06-17T14:47:18.412Z,32.40
2023-06-17T14:49:48.595Z,32.30
2023-06-17T14:52:16.764Z,32.30
2023-06-17T14:54:44.756Z,32.20
2023-06-17T14:57:13.606Z,32.20
2023-06-17T14:59:43.624Z,32.20
2023-06-17T15:02:36.559Z,32.00
2023-06-17T15:05:04.678Z,32.10
2023-06-17T15:07:32.560Z,32.10
2023-06-17T15:10:00.519Z,32.10
2023-06-17T15:12:28.412Z,32.00
2023-06-17T15:14:57.719Z,32.00
2023-06-17T15:17:26.099Z,32.00
2023-06-17T15:19:54.144Z,32.00
2023-06-17T15:22:22.273Z,32.00
2023-06-17T15:24:50.323Z,32.00
2023-06-17T15:27:18.307Z,31.90
2023-06-17T15:29:46.263Z,31.90
2023-06-17T15:32:15.664Z,31.90
2023-06-17T15:34:44.147Z,31.90
2023-06-17T15:37:12.233Z,31.80
2023-06-17T15:39:40.148Z,31.70
2023-06-17T15:42:08.589Z,31.60
2023-06-17T15:44:36.623Z,31.60
2023-06-17T15:47:05.026Z,31.60
2023-06-17T15:49:35.666Z,31.50
2023-06-17T15:52:04.002Z,31.50
2023-06-17T15:54:31.978Z,31.50
2023-06-17T15:57:02.006Z,31.50
2023-06-17T15:59:31.345Z,31.50
2023-06-17T16:01:59.315Z,31.50
2023-06-17T16:04:36.680Z,31.50
2023-06-17T16:07:06.679Z,31.40
2023-06-17T16:09:36.953Z,31.40
2023-06-17T16:12:05.859Z,31.40
2023-06-17T16:14:35.144Z,31.40
2023-06-17T16:17:04.974Z,31.30
2023-06-17T16:19:33.273Z,31.20
2023-06-17T16:22:03.033Z,31.20
2023-06-17T16:24:31.168Z,31.10
2023-06-17T16:26:59.946Z,31.10
2023-06-17T16:29:28.197Z,31.00
2023-06-17T16:31:56.110Z,30.90
2023-06-17T16:34:24.325Z,30.90
2023-06-17T16:36:52.502Z,30.80
2023-06-17T16:39:22.174Z,30.80
2023-06-17T16:41:50.283Z,30.80
2023-06-17T16:44:18.285Z,30.70
2023-06-17T16:46:47.641Z,30.60
2023-06-17T16:49:15.721Z,30.60
2023-06-17T16:51:43.644Z,30.60
2023-06-17T16:54:11.602Z,30.50
2023-06-17T16:56:40.921Z,30.50
2023-06-17T16:59:08.864Z,30.40
2023-06-17T17:01:36.862Z,30.30
2023-06-17T17:04:11.209Z,30.30
2023-06-17T17:06:39.235Z,30.20
2023-06-17T17:09:07.342Z,30.10
2023-06-17T17:11:35.271Z,30.00
2023-06-17T17:14:04.778Z,29.90
2023-06-17T17:16:32.779Z,29.90
2023-06-17T17:19:00.761Z,29.90
2023-06-17T17:21:28.964Z,29.80
2023-06-17T17:23:56.895Z,29.70
2023-06-17T17:26:25.028Z,29.70
2023-06-17T17:28:52.912Z,29.70
2023-06-17T17:31:22.233Z,29.60
2023-06-17T17:33:52.103Z,29.50
2023-06-17T17:36:20.769Z,29.50
2023-06-17T17:38:48.888Z,29.40
2023-06-17T17:41:16.863Z,29.30
2023-06-17T17:43:44.928Z,29.30
2023-06-17T17:46:12.987Z,29.20
2023-06-17T17:48:42.245Z,29.20
2023-06-17T17:51:10.178Z,29.10
2023-06-17T17:53:38.141Z,29.10
2023-06-17T17:56:06.344Z,29.00
2023-06-17T17:58:35.979Z,29.00
2023-06-17T18:01:04.780Z,28.90
2023-06-17T18:03:32.821Z,28.90
2023-06-17T18:06:02.259Z,28.80
2023-06-17T18:08:30.377Z,28.80
2023-06-17T18:10:58.504Z,28.70
2023-06-17T18:13:28.103Z,28.60
2023-06-17T18:15:57.557Z,28.60
2023-06-17T18:18:25.527Z,28.60
2023-06-17T18:20:53.397Z,28.50
2023-06-17T18:23:22.700Z,28.50
2023-06-17T18:25:50.764Z,28.50
2023-06-17T18:28:18.662Z,28.40
2023-06-17T18:30:46.698Z,28.40
2023-06-17T18:33:14.686Z,28.30
2023-06-17T18:35:42.637Z,28.30
2023-06-17T18:38:10.637Z,28.30
2023-06-17T18:40:39.909Z,28.30
2023-06-17T18:43:08.736Z,28.20
2023-06-17T18:45:36.672Z,28.20
2023-06-17T18:48:05.017Z,28.10
2023-06-17T18:50:33.218Z,28.00
2023-06-17T18:53:01.186Z,28.00
2023-06-17T18:55:31.191Z,27.90
2023-06-17T18:58:00.904Z,27.80
2023-06-17T19:00:31.700Z,27.70
2023-06-17T19:02:59.677Z,27.70
2023-06-17T19:05:27.698Z,27.60
2023-06-17T19:07:55.708Z,27.50
2023-06-17T19:10:23.986Z,27.50
2023-06-17T19:12:52.100Z,27.40
2023-06-17T19:15:21.754Z,27.40
2023-06-17T19:17:49.804Z,27.30
2023-06-17T19:20:17.921Z,27.20
2023-06-17T19:22:46.138Z,27.10
2023-06-17T19:25:14.017Z,27.00
2023-06-17T19:27:41.968Z,27.00
2023-06-17T19:30:10.636Z,26.80
2023-06-17T19:32:40.000Z,26.70
2023-06-17T19:35:08.598Z,26.60
2023-06-17T19:37:37.679Z,26.50
2023-06-17T19:40:06.478Z,26.40
2023-06-17T19:42:34.387Z,26.30
2023-06-17T19:45:02.360Z,26.30
2023-06-17T19:47:30.364Z,26.20
2023-06-17T19:50:00.453Z,26.10
2023-06-17T19:52:28.355Z,26.00
2023-06-17T19:54:56.570Z,25.90
2023-06-17T19:57:24.499Z,25.80
2023-06-17T19:59:52.488Z,25.70
2023-06-17T20:02:21.138Z,25.60
2023-06-17T20:04:49.188Z,25.50
2023-06-17T20:07:19.858Z,25.40
2023-06-17T20:09:47.968Z,25.40
2023-06-17T20:12:16.591Z,25.30
2023-06-17T20:14:45.575Z,25.20
2023-06-17T20:17:13.649Z,25.10
2023-06-17T20:19:41.828Z,25.00
2023-06-17T20:22:09.753Z,24.90
2023-06-17T20:24:38.998Z,24.80
2023-06-17T20:27:07.818Z,24.80
2023-06-17T20:29:36.180Z,24.70
2023-06-17T20:32:04.252Z,24.60
2023-06-17T20:34:32.191Z,24.60
2023-06-17T20:37:00.102Z,24.50
2023-06-17T20:39:27.989Z,24.40
2023-06-17T20:41:57.255Z,24.30
2023-06-17T20:44:25.241Z,24.30
2023-06-17T20:46:58.732Z,24.20
2023-06-17T20:49:27.158Z,24.10
2023-06-17T20:51:55.706Z,24.00
2023-06-17T20:54:23.666Z,24.00
2023-06-17T20:56:51.639Z,23.90
2023-06-17T20:59:22.409Z,23.90
2023-06-17T21:01:50.389Z,23.80
2023-06-17T21:04:18.609Z,23.70
2023-06-17T21:06:46.557Z,23.60
2023-06-17T21:09:14.725Z,23.60
2023-06-17T21:11:42.736Z,23.60
2023-06-17T21:14:10.818Z,23.60
2023-06-17T21:16:40.092Z,23.50
2023-06-17T21:19:08.033Z,23.40
2023-06-17T21:21:36.062Z,23.40
2023-06-17T21:24:04.137Z,23.30
2023-06-17T21:26:32.143Z,23.20
2023-06-17T21:29:00.126Z,23.10
2023-06-17T21:31:28.034Z,23.10
2023-06-17T21:33:57.311Z,23.00
2023-06-17T21:36:25.296Z,23.00
2023-06-17T21:38:53.194Z,22.90
2023-06-17T21:41:21.263Z,22.80
2023-06-17T21:43:49.133Z,22.70
2023-06-17T21:46:17.409Z,22.70
2023-06-17T21:48:45.464Z,22.80
2023-06-17T21:51:14.707Z,22.70
2023-06-17T21:53:42.733Z,22.60
2023-06-17T21:56:11.561Z,22.50
2023-06-17T21:58:40.213Z,22.40
2023-06-17T22:01:08.174Z,22.40
2023-06-17T22:03:36.276Z,22.30
2023-06-17T22:06:04.560Z,22.30
2023-06-17T22:08:42.101Z,22.20
2023-06-17T22:11:12.181Z,22.20
2023-06-17T22:13:40.418Z,22.10
2023-06-17T22:16:08.518Z,22.00
2023-06-17T22:18:36.533Z,21.90
2023-06-17T22:21:04.652Z,21.90
2023-06-17T22:23:33.966Z,21.90
2023-06-17T22:26:01.841Z,21.80
2023-06-17T22:28:30.214Z,21.70
2023-06-17T22:30:58.123Z,21.70
2023-06-17T22:33:26.132Z,21.70
2023-06-17T22:35:54.121Z,21.60
2023-06-17T22:38:22.116Z,21.60
2023-06-17T22:40:52.568Z,21.50
2023-06-17T22:43:20.952Z,21.50
2023-06-17T22:45:49.655Z,21.40
2023-06-17T22:48:17.878Z,21.40
2023-06-17T22:50:45.946Z,21.40
2023-06-17T22:53:14.084Z,21.40
2023-06-17T22:55:42.299Z,21.30
2023-06-17T22:58:11.860Z,21.20
2023-06-17T23:00:39.896Z,21.20
2023-06-17T23:03:08.250Z,21.10
2023-06-17T23:05:36.259Z,21.10
2023-06-17T23:08:05.582Z,21.10
2023-06-17T23:10:33.643Z,21.10
2023-06-17T23:13:01.550Z,21.00
2023-06-17T23:15:30.827Z,21.00
2023-06-17T23:17:58.922Z,21.00
2023-06-17T23:20:27.003Z,20.90
2023-06-17T23:22:55.159Z,20.90
2023-06-17T23:25:27.227Z,20.80
2023-06-17T23:27:55.368Z,20.80
2023-06-17T23:30:24.096Z,20.80
2023-06-17T23:32:53.807Z,20.70
2023-06-17T23:35:21.733Z,20.70
2023-06-17T23:37:49.861Z,20.60
2023-06-17T23:40:17.784Z,20.60
2023-06-17T23:42:45.625Z,20.50
2023-06-17T23:45:15.154Z,20.50
2023-06-17T23:47:43.590Z,20.40
2023-06-17T23:50:13.068Z,20.40
2023-06-17T23:52:41.012Z,20.30
2023-06-17T23:55:09.693Z,20.30
2023-06-17T23:57:37.712Z,20.20
